createdAt,value
2018-08-09T00:01:11.735Z,100701.53
2018-08-09T00:03:45.202Z,100697.45
2018-08-09T00:06:18.589Z,100695.13
2018-08-09T00:08:52.009Z,100691.43
2018-08-09T00:11:25.411Z,100690.71
2018-08-09T00:13:58.816Z,100694.89
2018-08-09T00:16:32.198Z,100695.72
2018-08-09T00:19:05.632Z,100687.17
2018-08-09T00:21:39.027Z,100685.34
2018-08-09T00:24:12.439Z,100689.61
2018-08-09T00:26:45.837Z,100691.56
2018-08-09T00:29:19.252Z,100686.02
2018-08-09T00:31:52.623Z,100683.67
2018-08-09T00:34:26.020Z,100686.20
2018-08-09T00:36:59.403Z,100682.86
2018-08-09T00:39:32.848Z,100686.86
2018-08-09T00:42:06.510Z,100683.63
2018-08-09T00:44:39.928Z,100691.95
2018-08-09T00:47:13.340Z,100695.66
2018-08-09T00:49:46.959Z,100695.02
2018-08-09T00:52:20.392Z,100694.36
2018-08-09T00:54:53.799Z,100692.42
2018-08-09T00:57:27.242Z,100699.19
2018-08-09T01:00:00.678Z,100699.22
2018-08-09T01:02:34.135Z,100706.72
2018-08-09T01:05:07.571Z,100703.39
2018-08-09T01:07:40.946Z,100706.34
2018-08-09T01:10:14.367Z,100699.10
2018-08-09T01:12:47.785Z,100703.84
2018-08-09T01:15:21.186Z,100698.88
2018-08-09T01:17:54.667Z,100691.11
2018-08-09T01:20:28.055Z,100699.06
2018-08-09T01:23:01.450Z,100690.76
2018-08-09T01:25:34.875Z,100693.53
2018-08-09T01:28:08.265Z,100697.48
2018-08-09T01:30:41.693Z,100694.59
2018-08-09T01:33:15.088Z,100689.95
2018-08-09T01:35:48.473Z,100695.33
2018-08-09T01:38:21.878Z,100699.61
2018-08-09T01:40:55.284Z,100696.36
2018-08-09T01:43:39.895Z,100695.94
2018-08-09T01:46:13.285Z,100687.92
2018-08-09T01:48:46.650Z,100693.12
2018-08-09T01:51:20.111Z,100690.97
2018-08-09T01:53:53.903Z,100695.33
2018-08-09T01:56:27.303Z,100699.09
2018-08-09T01:59:00.718Z,100691.02
2018-08-09T02:01:34.171Z,100693.11
2018-08-09T02:04:07.585Z,100698.13
2018-08-09T02:06:40.982Z,100701.21
2018-08-09T02:09:18.507Z,100696.49
2018-08-09T02:11:51.921Z,100701.74
2018-08-09T02:14:25.291Z,100704.16
2018-08-09T02:16:58.878Z,100701.21
2018-08-09T02:19:32.270Z,100698.42
2018-08-09T02:22:05.716Z,100698.22
2018-08-09T02:24:39.207Z,100696.83
2018-08-09T02:27:12.631Z,100683.51
2018-08-09T02:29:46.015Z,100698.95
2018-08-09T02:32:19.423Z,100703.92
2018-08-09T02:34:52.799Z,100704.92
2018-08-09T02:37:26.251Z,100706.84
2018-08-09T02:39:59.629Z,100706.68
2018-08-09T02:42:33.040Z,100704.35
2018-08-09T02:45:06.499Z,100701.13
2018-08-09T02:47:39.927Z,100710.93
2018-08-09T02:50:13.356Z,100711.19
2018-08-09T02:52:46.757Z,100712.69
2018-08-09T02:55:20.163Z,100720.46
2018-08-09T02:57:53.547Z,100721.02
2018-08-09T03:00:27.007Z,100718.23
2018-08-09T03:03:00.396Z,100711.77
2018-08-09T03:05:33.807Z,100722.34
2018-08-09T03:08:07.240Z,100719.02
2018-08-09T03:10:40.634Z,100721.97
2018-08-09T03:13:14.094Z,100722.89
2018-08-09T03:15:47.477Z,100725.25
2018-08-09T03:18:20.850Z,100733.98
2018-08-09T03:20:54.246Z,100724.67
2018-08-09T03:23:27.653Z,100731.91
2018-08-09T03:26:01.061Z,100736.48
2018-08-09T03:28:34.828Z,100732.23
2018-08-09T03:31:08.272Z,100731.81
2018-08-09T03:33:41.642Z,100727.31
2018-08-09T03:36:15.058Z,100726.33
2018-08-09T03:38:48.456Z,100727.09
2018-08-09T03:41:21.859Z,100733.58
2018-08-09T03:43:55.296Z,100732.39
2018-08-09T03:46:28.713Z,100737.87
2018-08-09T03:49:02.130Z,100732.17
2018-08-09T03:51:35.910Z,100737.56
2018-08-09T03:54:09.311Z,100732.53
2018-08-09T03:56:42.714Z,100729.02
2018-08-09T03:59:16.098Z,100727.27
2018-08-09T04:01:54.705Z,100731.61
2018-08-09T04:04:28.199Z,100733.16
2018-08-09T04:07:01.603Z,100737.94
2018-08-09T04:09:34.997Z,100732.44
2018-08-09T04:12:08.426Z,100729.69
2018-08-09T04:14:41.806Z,100728.86
2018-08-09T04:17:21.340Z,100730.16
2018-08-09T04:19:54.714Z,100734.61
2018-08-09T04:22:28.112Z,100720.30
2018-08-09T04:25:01.473Z,100725.55
2018-08-09T04:27:34.856Z,100728.81
2018-08-09T04:30:08.299Z,100725.09
2018-08-09T04:32:41.671Z,100734.12
2018-08-09T04:35:15.097Z,100735.63
2018-08-09T04:37:48.488Z,100741.48
2018-08-09T04:40:21.871Z,100744.27
2018-08-09T04:42:55.261Z,100749.09
2018-08-09T04:45:28.655Z,100748.53
2018-08-09T04:48:02.044Z,100747.58
2018-08-09T04:50:35.704Z,100745.95
2018-08-09T04:53:09.100Z,100754.16
2018-08-09T04:55:42.470Z,100750.47
2018-08-09T04:58:15.880Z,100751.80
2018-08-09T05:00:49.291Z,100740.93
2018-08-09T05:03:22.671Z,100743.58
2018-08-09T05:05:56.047Z,100746.61
2018-08-09T05:08:29.456Z,100737.45
2018-08-09T05:11:02.863Z,100739.07
2018-08-09T05:13:36.271Z,100743.38
2018-08-09T05:16:09.706Z,100742.19
2018-08-09T05:18:43.107Z,100739.42
2018-08-09T05:21:16.512Z,100742.02
2018-08-09T05:23:49.918Z,100742.48
2018-08-09T05:26:23.326Z,100738.48
2018-08-09T05:28:56.767Z,100736.98
2018-08-09T05:31:30.175Z,100740.70
2018-08-09T05:34:03.716Z,100750.22
2018-08-09T05:36:37.089Z,100759.39
2018-08-09T05:39:11.672Z,100753.97
2018-08-09T05:41:45.059Z,100748.75
2018-08-09T05:44:18.458Z,100753.64
2018-08-09T05:46:51.846Z,100737.57
2018-08-09T05:49:25.230Z,100736.56
2018-08-09T05:51:58.656Z,100735.02
2018-08-09T05:54:32.071Z,100734.02
2018-08-09T05:57:05.654Z,100733.77
2018-08-09T05:59:39.099Z,100738.87
2018-08-09T06:02:12.491Z,100742.57
2018-08-09T06:04:45.881Z,100749.20
2018-08-09T06:07:19.323Z,100750.62
2018-08-09T06:09:52.702Z,100752.25
2018-08-09T06:12:26.109Z,100754.26
2018-08-09T06:14:59.538Z,100754.88
2018-08-09T06:17:32.963Z,100746.09
2018-08-09T06:20:06.479Z,100742.03
2018-08-09T06:22:39.887Z,100744.17
2018-08-09T06:25:13.296Z,100748.63
2018-08-09T06:27:46.737Z,100747.07
2018-08-09T06:30:20.159Z,100746.37
2018-08-09T06:32:53.568Z,100748.05
2018-08-09T06:35:26.934Z,100751.24
2018-08-09T06:38:00.379Z,100749.55
2018-08-09T06:40:33.802Z,100753.97
2018-08-09T06:43:07.239Z,100750.76
2018-08-09T06:45:40.636Z,100757.37
2018-08-09T06:48:14.081Z,100754.34
2018-08-09T06:50:47.472Z,100752.92
2018-08-09T06:53:20.885Z,100748.52
2018-08-09T06:55:54.262Z,100741.07
2018-08-09T06:58:27.698Z,100743.68
2018-08-09T07:01:01.132Z,100739.40
2018-08-09T07:03:34.540Z,100742.63
2018-08-09T07:06:07.920Z,100745.00
2018-08-09T07:08:41.296Z,100746.05
2018-08-09T07:11:14.683Z,100752.59
2018-08-09T07:13:48.084Z,100744.88
2018-08-09T07:16:21.450Z,100742.16
2018-08-09T07:18:54.846Z,100737.30
2018-08-09T07:21:28.264Z,100736.99
2018-08-09T07:24:01.771Z,100735.02
2018-08-09T07:26:35.219Z,100733.06
2018-08-09T07:29:08.725Z,100738.41
2018-08-09T07:31:42.126Z,100733.81
2018-08-09T07:34:15.515Z,100732.48
2018-08-09T07:36:48.937Z,100724.65
2018-08-09T07:39:22.376Z,100730.69
2018-08-09T07:41:55.744Z,100728.46
2018-08-09T07:44:29.198Z,100721.66
2018-08-09T07:47:02.605Z,100714.47
2018-08-09T07:49:36.009Z,100716.16
2018-08-09T07:52:09.428Z,100716.69
2018-08-09T07:54:42.861Z,100713.92
2018-08-09T07:57:16.227Z,100709.73
2018-08-09T07:59:49.660Z,100708.33
2018-08-09T08:02:23.056Z,100708.98
2018-08-09T08:04:56.498Z,100711.00
2018-08-09T08:07:29.938Z,100700.14
2018-08-09T08:10:03.411Z,100697.95
2018-08-09T08:12:36.822Z,100693.66
2018-08-09T08:15:11.391Z,100685.87
2018-08-09T08:17:44.717Z,100693.05
2018-08-09T08:20:18.168Z,100687.27
2018-08-09T08:22:51.538Z,100688.58
2018-08-09T08:25:24.994Z,100679.45
2018-08-09T08:27:58.355Z,100684.09
2018-08-09T08:30:31.802Z,100678.08
2018-08-09T08:33:06.061Z,100677.42
2018-08-09T08:35:39.487Z,100674.40
2018-08-09T08:38:12.875Z,100676.25
2018-08-09T08:40:46.304Z,100666.53
2018-08-09T08:43:19.687Z,100659.86
2018-08-09T08:45:53.124Z,100666.80
2018-08-09T08:48:26.534Z,100657.77
2018-08-09T08:50:59.935Z,100653.73
2018-08-09T08:53:33.330Z,100658.34
2018-08-09T08:56:06.787Z,100658.68
2018-08-09T08:58:40.224Z,100663.21
2018-08-09T09:01:13.682Z,100659.72
2018-08-09T09:03:47.100Z,100651.69
2018-08-09T09:06:20.527Z,100651.05
2018-08-09T09:08:53.907Z,100648.76
2018-08-09T09:11:27.304Z,100645.27
2018-08-09T09:14:00.711Z,100646.52
2018-08-09T09:16:34.134Z,100642.04
2018-08-09T09:19:08.059Z,100632.56
2018-08-09T09:21:41.455Z,100641.02
2018-08-09T09:24:14.860Z,100638.28
2018-08-09T09:29:21.662Z,100632.36
2018-08-09T09:31:55.103Z,100624.29
2018-08-09T09:34:28.601Z,100616.92
2018-08-09T09:37:01.989Z,100616.26
2018-08-09T09:39:35.420Z,100614.59
2018-08-09T09:42:08.855Z,100610.41
2018-08-09T09:44:42.266Z,100604.23
2018-08-09T09:47:15.662Z,100606.23
2018-08-09T09:49:49.057Z,100603.94
2018-08-09T09:52:22.831Z,100602.05
2018-08-09T09:54:56.254Z,100595.64
2018-08-09T09:57:29.628Z,100591.58
2018-08-09T10:00:03.094Z,100582.30
2018-08-09T10:02:36.486Z,100588.28
2018-08-09T10:05:10.072Z,100580.34
2018-08-09T10:07:43.426Z,100582.70
2018-08-09T10:10:16.866Z,100571.63
2018-08-09T10:12:50.281Z,100571.38
2018-08-09T10:15:23.700Z,100581.27
2018-08-09T10:17:57.099Z,100577.20
2018-08-09T10:20:30.493Z,100571.86
2018-08-09T10:23:03.894Z,100568.13
2018-08-09T10:25:37.293Z,100566.71
2018-08-09T10:28:10.685Z,100561.27
2018-08-09T10:30:44.101Z,100543.84
2018-08-09T10:33:17.511Z,100550.64
2018-08-09T10:35:50.907Z,100536.32
2018-08-09T10:38:24.279Z,100539.63
2018-08-09T10:40:57.694Z,100539.45
2018-08-09T10:43:31.062Z,100532.41
2018-08-09T10:46:04.462Z,100522.82
2018-08-09T10:48:38.687Z,100508.28
2018-08-09T10:51:12.078Z,100504.69
2018-08-09T10:53:45.444Z,100501.91
2018-08-09T10:56:18.962Z,100509.20
2018-08-09T10:58:52.428Z,100499.17
2018-08-09T11:01:25.862Z,100501.28
2018-08-09T11:03:59.291Z,100505.04
2018-08-09T11:06:32.687Z,100494.09
2018-08-09T11:09:08.618Z,100499.99
2018-08-09T11:11:42.007Z,100484.50
2018-08-09T11:14:15.358Z,100483.66
2018-08-09T11:16:48.846Z,100486.44
2018-08-09T11:19:22.226Z,100483.34
2018-08-09T11:21:55.664Z,100473.39
2018-08-09T11:24:29.034Z,100465.70
2018-08-09T11:27:02.437Z,100452.95
2018-08-09T11:29:35.824Z,100452.30
2018-08-09T11:32:09.218Z,100449.72
2018-08-09T11:34:42.586Z,100446.85
2018-08-09T11:37:15.988Z,100449.22
2018-08-09T11:39:49.418Z,100443.63
2018-08-09T11:42:22.807Z,100434.05
2018-08-09T11:44:56.174Z,100423.95
2018-08-09T11:47:29.619Z,100406.62
2018-08-09T11:50:03.002Z,100386.86
2018-08-09T11:52:36.395Z,100378.60
2018-08-09T11:55:09.813Z,100375.63
2018-08-09T11:57:43.195Z,100366.78
2018-08-09T12:00:16.619Z,100381.27
2018-08-09T12:02:50.058Z,100380.81
2018-08-09T12:05:23.462Z,100360.98
2018-08-09T12:07:56.866Z,100350.88
2018-08-09T12:10:30.449Z,100349.60
2018-08-09T12:13:03.905Z,100348.27
2018-08-09T12:15:37.348Z,100347.77
2018-08-09T12:18:10.784Z,100340.00
2018-08-09T12:20:44.224Z,100330.12
2018-08-09T12:23:17.643Z,100322.13
2018-08-09T12:25:51.054Z,100323.66
2018-08-09T12:28:24.542Z,100314.94
2018-08-09T12:30:57.954Z,100307.20
2018-08-09T12:33:31.458Z,100294.84
2018-08-09T12:36:05.274Z,100291.29
2018-08-09T12:38:38.699Z,100280.81
2018-08-09T12:41:12.074Z,100285.69
2018-08-09T12:43:45.583Z,100270.91
2018-08-09T12:46:18.980Z,100263.98
2018-08-09T12:48:52.467Z,100252.64
2018-08-09T12:51:25.930Z,100233.92
2018-08-09T12:53:59.982Z,100248.30
2018-08-09T12:56:33.526Z,100247.00
2018-08-09T12:59:06.978Z,100250.16
2018-08-09T13:01:40.420Z,100251.75
2018-08-09T13:04:13.887Z,100243.36
2018-08-09T13:06:47.334Z,100229.32
2018-08-09T13:09:20.752Z,100224.70
2018-08-09T13:11:54.177Z,100236.53
2018-08-09T13:14:27.604Z,100231.42
2018-08-09T13:17:01.128Z,100223.30
2018-08-09T13:19:34.520Z,100224.16
2018-08-09T13:22:08.231Z,100210.92
2018-08-09T13:24:41.623Z,100211.95
2018-08-09T13:27:15.451Z,100209.84
2018-08-09T13:29:55.543Z,100207.63
2018-08-09T13:32:29.136Z,100202.42
2018-08-09T13:35:02.575Z,100198.03
2018-08-09T13:37:36.019Z,100203.08
2018-08-09T13:40:10.232Z,100185.95
2018-08-09T13:42:43.661Z,100184.99
2018-08-09T13:45:17.257Z,100171.05
2018-08-09T13:47:50.730Z,100173.84
2018-08-09T13:50:24.207Z,100167.84
2018-08-09T13:52:57.639Z,100165.06
2018-08-09T13:55:31.037Z,100157.94
2018-08-09T13:58:04.600Z,100156.81
2018-08-09T14:00:38.043Z,100149.73
2018-08-09T14:03:11.467Z,100144.11
2018-08-09T14:05:44.886Z,100130.72
2018-08-09T14:08:18.330Z,100123.48
2018-08-09T14:10:51.726Z,100113.40
2018-08-09T14:13:25.156Z,100113.98
2018-08-09T14:15:58.625Z,100112.98
2018-08-09T14:18:32.044Z,100102.30
2018-08-09T14:21:05.431Z,100094.25
2018-08-09T14:23:38.830Z,100092.22
2018-08-09T14:26:12.243Z,100078.22
2018-08-09T14:28:45.691Z,100082.43
2018-08-09T14:31:19.077Z,100066.83
2018-08-09T14:33:52.746Z,100047.87
2018-08-09T14:36:26.172Z,100046.02
2018-08-09T14:38:59.725Z,100032.16
2018-08-09T14:41:33.152Z,100027.80
2018-08-09T14:44:07.030Z,100019.43
2018-08-09T14:46:40.448Z,100006.46
2018-08-09T14:49:13.877Z,100001.15
2018-08-09T14:51:47.259Z,99993.05
2018-08-09T14:54:20.666Z,99993.37
2018-08-09T14:56:54.058Z,99996.64
2018-08-09T14:59:27.527Z,99982.48
2018-08-09T15:02:00.963Z,99983.22
2018-08-09T15:04:34.388Z,99986.88
2018-08-09T15:07:07.773Z,99989.33
2018-08-09T15:09:41.216Z,99985.42
2018-08-09T15:12:14.668Z,99977.19
2018-08-09T15:14:48.092Z,99976.53
2018-08-09T15:17:21.543Z,99968.67
2018-08-09T15:19:54.951Z,99966.09
2018-08-09T15:22:28.358Z,99964.38
2018-08-09T15:25:01.796Z,99958.16
2018-08-09T15:27:35.299Z,99949.84
2018-08-09T15:30:14.565Z,99940.52
2018-08-09T15:32:48.307Z,99953.23
2018-08-09T15:35:21.761Z,99938.31
2018-08-09T15:37:55.252Z,99932.34
2018-08-09T15:40:28.627Z,99924.02
2018-08-09T15:43:02.067Z,99918.74
2018-08-09T15:45:35.473Z,99902.98
2018-08-09T15:48:08.938Z,99887.27
2018-08-09T15:50:42.378Z,99880.81
2018-08-09T15:53:15.775Z,99873.77
2018-08-09T15:55:49.271Z,99874.02
2018-08-09T15:58:22.699Z,99863.42
2018-08-09T16:00:56.160Z,99851.27
2018-08-09T16:03:30.018Z,99850.98
2018-08-09T16:06:03.423Z,99845.11
2018-08-09T16:08:36.858Z,99845.34
2018-08-09T16:11:10.303Z,99824.32
2018-08-09T16:13:43.727Z,99810.97
2018-08-09T16:16:17.154Z,99813.36
2018-08-09T16:18:50.589Z,99811.89
2018-08-09T16:21:23.982Z,99812.35
2018-08-09T16:23:57.388Z,99804.50
2018-08-09T16:26:30.783Z,99801.91
2018-08-09T16:29:05.451Z,99808.13
2018-08-09T16:31:38.885Z,99841.31
2018-08-09T16:34:12.324Z,99894.66
2018-08-09T16:36:45.714Z,99959.08
2018-08-09T16:39:19.123Z,99935.82
2018-08-09T16:41:52.513Z,99923.68
2018-08-09T16:44:25.931Z,99923.73
2018-08-09T16:46:59.316Z,100010.56
2018-08-09T16:49:32.787Z,99966.09
2018-08-09T16:52:06.184Z,99972.55
2018-08-09T16:54:39.686Z,99963.17
2018-08-09T16:57:13.096Z,99863.41
2018-08-09T16:59:46.720Z,99931.84
2018-08-09T17:02:20.147Z,99889.64
2018-08-09T17:04:53.784Z,99899.42
2018-08-09T17:07:27.244Z,99980.00
2018-08-09T17:10:00.726Z,100064.59
2018-08-09T17:12:36.575Z,100058.02
2018-08-09T17:15:13.345Z,100055.53
2018-08-09T17:17:46.816Z,100053.20
2018-08-09T17:20:25.655Z,100040.56
2018-08-09T17:22:59.857Z,100036.04
2018-08-09T17:25:33.420Z,100018.43
2018-08-09T17:28:06.853Z,100010.00
2018-08-09T17:30:40.405Z,99996.41
2018-08-09T17:33:13.844Z,99979.59
2018-08-09T17:35:47.611Z,99978.33
2018-08-09T17:38:21.069Z,99979.88
2018-08-09T17:40:54.526Z,100003.88
2018-08-09T17:46:25.340Z,100000.02
2018-08-09T17:52:07.098Z,99995.26
2018-08-09T17:57:48.858Z,99992.69
2018-08-09T18:00:25.575Z,99982.62
2018-08-09T18:02:59.917Z,99985.22
2018-08-09T18:05:33.286Z,100006.63
2018-08-09T18:08:07.367Z,100001.66
2018-08-09T18:10:40.773Z,100012.41
2018-08-09T18:13:14.116Z,100023.41
2018-08-09T18:15:47.459Z,100043.41
2018-08-09T18:18:21.042Z,100050.05
2018-08-09T18:20:54.447Z,100036.77
2018-08-09T18:23:29.958Z,100023.51
2018-08-09T18:26:03.655Z,100021.48
2018-08-09T18:28:37.080Z,100016.86
2018-08-09T18:31:10.482Z,100017.58
2018-08-09T18:33:44.029Z,100020.19
2018-08-09T18:36:17.422Z,100023.02
2018-08-09T18:38:50.913Z,100032.14
2018-08-09T18:41:24.338Z,100019.22
2018-08-09T18:43:59.944Z,100012.12
2018-08-09T18:46:33.381Z,99999.11
2018-08-09T18:49:06.946Z,99992.94
2018-08-09T18:51:40.333Z,99985.75
2018-08-09T18:54:17.703Z,99974.52
2018-08-09T18:56:51.105Z,99981.61
2018-08-09T18:59:24.574Z,99979.98
2018-08-09T19:01:58.068Z,99994.43
2018-08-09T19:04:31.428Z,100000.36
2018-08-09T19:07:05.089Z,100010.19
2018-08-09T19:09:38.590Z,100011.73
2018-08-09T19:12:11.973Z,100007.48
2018-08-09T19:14:45.464Z,99995.19
2018-08-09T19:17:26.897Z,100000.49
2018-08-09T19:20:01.454Z,100017.55
2018-08-09T19:22:35.820Z,100020.86
2018-08-09T19:25:09.935Z,100019.45
2018-08-09T19:27:44.479Z,100011.98
2018-08-09T19:30:19.525Z,100010.34
2018-08-09T19:32:52.975Z,100012.25
2018-08-09T19:35:26.365Z,100019.82
2018-08-09T19:38:00.015Z,100009.17
2018-08-09T19:40:34.367Z,100009.41
2018-08-09T19:43:08.296Z,100014.74
2018-08-09T19:45:41.662Z,100015.80
2018-08-09T19:48:22.735Z,100016.98
2018-08-09T19:50:56.126Z,100005.41
2018-08-09T19:53:29.964Z,100005.84
2018-08-09T19:56:04.289Z,100002.08
2018-08-09T19:58:37.717Z,100005.25
2018-08-09T20:01:11.129Z,100007.36
2018-08-09T20:03:44.513Z,100004.31
2018-08-09T20:06:17.954Z,99990.45
2018-08-09T20:08:54.258Z,99978.76
2018-08-09T20:11:27.714Z,99991.44
2018-08-09T20:14:01.124Z,100000.05
2018-08-09T20:16:34.685Z,100004.53
2018-08-09T20:19:08.439Z,100011.38
2018-08-09T20:21:45.072Z,100010.20
2018-08-09T20:24:19.225Z,100017.41
2018-08-09T20:26:52.699Z,100015.77
2018-08-09T20:29:26.208Z,100012.67
2018-08-09T20:32:00.053Z,100017.64
2018-08-09T20:34:33.613Z,100013.05
2018-08-09T20:37:07.091Z,100022.59
2018-08-09T20:39:46.609Z,100025.08
2018-08-09T20:42:20.184Z,100033.83
2018-08-09T20:44:53.649Z,100036.55
2018-08-09T20:47:26.997Z,100048.82
2018-08-09T20:50:00.411Z,100048.82
2018-08-09T20:52:33.826Z,100046.45
2018-08-09T20:55:07.596Z,100050.00
2018-08-09T20:57:41.951Z,100054.34
2018-08-09T21:00:24.578Z,100057.30
2018-08-09T21:02:59.127Z,100064.39
2018-08-09T21:05:34.154Z,100066.99
2018-08-09T21:08:07.921Z,100066.61
2018-08-09T21:10:41.349Z,100071.46
2018-08-09T21:13:14.723Z,100072.41
2018-08-09T21:15:48.786Z,100070.27
2018-08-09T21:18:22.265Z,100068.84
2018-08-09T21:20:55.630Z,100077.80
2018-08-09T21:23:29.106Z,100076.25
2018-08-09T21:26:02.553Z,100077.89
2018-08-09T21:28:36.020Z,100073.39
2018-08-09T21:31:09.618Z,100081.72
2018-08-09T21:33:43.066Z,100089.45
2018-08-09T21:36:16.449Z,100092.23
2018-08-09T21:38:49.879Z,100102.02
2018-08-09T21:41:23.231Z,100106.78
2018-08-09T21:43:56.657Z,100111.58
2018-08-09T21:46:30.032Z,100113.45
2018-08-09T21:49:03.585Z,100123.36
2018-08-09T21:51:36.950Z,100132.58
2018-08-09T21:54:10.450Z,100124.65
2018-08-09T21:56:43.882Z,100129.20
2018-08-09T21:59:17.411Z,100139.09
2018-08-09T22:01:50.800Z,100145.47
2018-08-09T22:04:24.182Z,100156.71
2018-08-09T22:07:03.013Z,100158.58
2018-08-09T22:09:41.576Z,100159.88
2018-08-09T22:12:20.251Z,100152.55
2018-08-09T22:14:58.812Z,100156.31
2018-08-09T22:17:37.462Z,100160.56
2018-08-09T22:20:16.076Z,100164.73
2018-08-09T22:22:49.494Z,100164.52
2018-08-09T22:25:22.862Z,100167.06
2018-08-09T22:27:56.265Z,100166.84
2018-08-09T22:30:29.660Z,100178.30
2018-08-09T22:33:03.213Z,100177.92
2018-08-09T22:35:36.777Z,100180.02
2018-08-09T22:38:10.351Z,100184.83
2018-08-09T22:40:43.995Z,100188.48
2018-08-09T22:43:17.569Z,100185.13
2018-08-09T22:45:51.175Z,100189.73
2018-08-09T22:48:24.774Z,100202.85
2018-08-09T22:50:58.253Z,100210.49
2018-08-09T22:53:31.868Z,100208.10
2018-08-09T22:56:05.254Z,100224.62
2018-08-09T22:58:38.641Z,100225.91
2018-08-09T23:01:12.048Z,100219.63
2018-08-09T23:03:45.449Z,100220.17
2018-08-09T23:06:18.872Z,100230.16
2018-08-09T23:08:52.262Z,100230.55
2018-08-09T23:11:25.706Z,100242.43
2018-08-09T23:13:59.113Z,100232.95
2018-08-09T23:16:32.491Z,100244.48
2018-08-09T23:19:05.946Z,100247.00
2018-08-09T23:21:39.347Z,100246.61
2018-08-09T23:24:12.749Z,100249.67
2018-08-09T23:26:46.122Z,100257.27
2018-08-09T23:29:19.529Z,100256.28
2018-08-09T23:31:52.986Z,100262.14
2018-08-09T23:34:26.426Z,100264.20
2018-08-09T23:36:59.844Z,100258.66
2018-08-09T23:39:33.189Z,100261.60
2018-08-09T23:42:06.807Z,100253.66
2018-08-09T23:44:40.206Z,100258.14
2018-08-09T23:47:13.589Z,100253.68
2018-08-09T23:49:46.967Z,100245.54
2018-08-09T23:52:20.426Z,100251.67
2018-08-09T23:54:53.809Z,100251.33
2018-08-09T23:57:27.797Z,100244.48
